Time;durP1;ratioP1;P1;durP2;ratioP2;P2;SDS_P1;SDS_P2;PMS_P1;PMS_P2;Temp;Humidity;BMP_temperature;BMP_pressure;BME280_temperature;BME280_humidity;BME280_pressure;Samples;Min_cycle;Max_cycle;Signal;HPM_P1;HPM_P2
2024/02/20 00:02:17;;;;;;;11.20;4.60;;;7.00;99.90;;;;;;6215016;23;20076;-74
2024/02/20 00:04:44;;;;;;;9.47;4.00;;;7.00;99.90;;;;;;6214447;23;20387;-74
2024/02/20 00:07:09;;;;;;;8.43;4.40;;;7.00;99.90;;;;;;6214833;23;20047;-74
2024/02/20 00:09:35;;;;;;;8.70;4.03;;;7.00;99.90;;;;;;6215099;23;20040;-73
2024/02/20 00:12:00;;;;;;;8.07;4.00;;;7.00;99.90;;;;;;6215135;23;20000;-75
2024/02/20 00:14:27;;;;;;;6.73;3.40;;;7.00;99.90;;;;;;6214041;23;20000;-74
2024/02/20 00:16:52;;;;;;;10.17;3.83;;;7.00;99.90;;;;;;6214340;23;20009;-75
2024/02/20 00:19:20;;;;;;;8.80;4.10;;;7.00;99.90;;;;;;6214522;23;20066;-74
2024/02/20 00:21:46;;;;;;;13.60;4.90;;;7.00;99.90;;;;;;6215042;23;20330;-74
2024/02/20 00:24:12;;;;;;;9.40;3.93;;;7.00;99.90;;;;;;6213765;23;20000;-74
2024/02/20 00:26:37;;;;;;;7.90;3.60;;;7.00;99.90;;;;;;6214887;23;20024;-74
2024/02/20 00:29:03;;;;;;;8.43;3.77;;;7.00;99.90;;;;;;6214438;23;20431;-73
2024/02/20 00:31:32;;;;;;;8.93;3.70;;;7.00;99.90;;;;;;6214379;23;20043;-74
2024/02/20 00:34:01;;;;;;;5.93;3.00;;;7.00;99.90;;;;;;6213953;23;20012;-75
2024/02/20 00:36:26;;;;;;;5.00;3.30;;;7.00;99.90;;;;;;6214751;23;20004;-74
2024/02/20 00:38:52;;;;;;;6.17;2.80;;;7.10;99.90;;;;;;6214192;23;20335;-73
2024/02/20 00:41:18;;;;;;;7.33;3.13;;;7.20;99.90;;;;;;6214822;23;20012;-74
2024/02/20 00:43:44;;;;;;;6.93;3.07;;;7.20;99.90;;;;;;6213973;23;20410;-74
2024/02/20 00:46:18;;;;;;;7.73;2.93;;;7.10;99.90;;;;;;6213934;23;20028;-73
2024/02/20 00:48:44;;;;;;;4.13;2.40;;;7.10;99.90;;;;;;6214927;23;20000;-73
2024/02/20 00:51:10;;;;;;;5.53;2.70;;;7.10;99.90;;;;;;6214455;23;20055;-73
2024/02/20 00:53:35;;;;;;;4.33;2.33;;;7.00;99.90;;;;;;6214430;23;20012;-74
2024/02/20 00:56:01;;;;;;;4.23;2.47;;;6.90;99.90;;;;;;6213914;23;20090;-74
2024/02/20 00:58:26;;;;;;;4.10;2.47;;;6.80;99.90;;;;;;6214529;23;20068;-74
2024/02/20 01:00:53;;;;;;;4.87;2.37;;;6.70;99.90;;;;;;6214334;23;20005;-74
2024/02/20 01:03:18;;;;;;;3.20;2.27;;;6.70;99.90;;;;;;6214516;23;20008;-74
2024/02/20 01:05:44;;;;;;;4.53;2.17;;;6.70;99.90;;;;;;6213890;23;20001;-73
2024/02/20 01:08:10;;;;;;;4.87;2.10;;;6.60;99.90;;;;;;6214517;23;20001;-74
2024/02/20 01:10:37;;;;;;;4.47;2.20;;;6.60;99.90;;;;;;6214545;23;20437;-74
2024/02/20 01:13:03;;;;;;;5.37;2.23;;;6.50;99.90;;;;;;6214044;23;20001;-74
2024/02/20 01:15:28;;;;;;;3.50;2.50;;;6.50;99.90;;;;;;6213894;23;20084;-74
2024/02/20 01:17:54;;;;;;;4.93;2.37;;;6.40;99.90;;;;;;6214033;23;20027;-74
2024/02/20 01:20:19;;;;;;;5.80;2.60;;;6.40;99.90;;;;;;6214631;23;20005;-75
2024/02/20 01:22:45;;;;;;;3.07;2.27;;;6.40;99.90;;;;;;6214216;23;20039;-75
2024/02/20 01:25:10;;;;;;;4.43;2.80;;;6.40;99.90;;;;;;6213857;23;20024;-74
2024/02/20 01:27:36;;;;;;;4.47;2.20;;;6.40;99.90;;;;;;6214236;23;20011;-74
2024/02/20 01:30:02;;;;;;;5.27;2.40;;;6.40;99.90;;;;;;6214478;23;20001;-73
2024/02/20 01:32:28;;;;;;;4.17;2.30;;;6.40;99.90;;;;;;6214447;23;20004;-74
2024/02/20 01:34:53;;;;;;;6.43;3.47;;;6.30;99.90;;;;;;6213577;23;20428;-75
2024/02/20 01:37:19;;;;;;;4.77;2.70;;;6.30;99.90;;;;;;6214158;23;20032;-74
2024/02/20 01:39:45;;;;;;;7.07;2.87;;;6.30;99.90;;;;;;6214079;23;20005;-74
2024/02/20 01:42:10;;;;;;;4.93;2.90;;;6.30;99.90;;;;;;6213365;23;20001;-73
2024/02/20 01:44:36;;;;;;;6.23;3.27;;;6.30;99.90;;;;;;6213164;23;20008;-74
2024/02/20 01:47:03;;;;;;;4.57;3.50;;;6.30;99.90;;;;;;6213991;23;20284;-74
2024/02/20 01:49:29;;;;;;;5.67;3.10;;;6.30;99.90;;;;;;6214185;23;20005;-74
2024/02/20 01:51:56;;;;;;;6.07;3.50;;;6.30;99.90;;;;;;6213727;23;20011;-74
2024/02/20 01:54:21;;;;;;;4.17;2.90;;;6.30;99.90;;;;;;6213036;23;20004;-74
2024/02/20 01:56:48;;;;;;;4.80;3.10;;;6.30;99.90;;;;;;6213871;23;20035;-74
2024/02/20 01:59:14;;;;;;;5.83;3.20;;;6.30;99.90;;;;;;6213897;23;20020;-74
2024/02/20 02:01:40;;;;;;;5.87;3.00;;;6.30;99.90;;;;;;6214668;23;20326;-74
2024/02/20 02:04:05;;;;;;;4.70;2.80;;;6.30;99.90;;;;;;6213507;23;20083;-74
2024/02/20 02:06:36;;;;;;;4.83;2.63;;;6.30;99.90;;;;;;6214415;23;20001;-74
2024/02/20 02:09:02;;;;;;;6.33;2.87;;;6.30;99.90;;;;;;6213722;23;20079;-74
2024/02/20 02:11:27;;;;;;;4.43;2.50;;;6.30;99.90;;;;;;6213681;23;20046;-74
2024/02/20 02:13:53;;;;;;;6.27;2.23;;;6.30;99.90;;;;;;6213274;23;20004;-74
2024/02/20 02:16:18;;;;;;;4.23;1.97;;;6.20;99.90;;;;;;6212018;23;20036;-74
2024/02/20 02:18:44;;;;;;;4.73;2.00;;;6.20;99.90;;;;;;6213046;23;20000;-74
2024/02/20 02:21:09;;;;;;;4.73;2.03;;;6.20;99.90;;;;;;6213726;23;20001;-74
2024/02/20 02:23:35;;;;;;;4.47;1.97;;;6.20;99.90;;;;;;6213859;23;19997;-74
2024/02/20 02:26:01;;;;;;;2.97;2.00;;;6.20;99.90;;;;;;6212966;23;20356;-74
2024/02/20 02:28:26;;;;;;;2.90;1.67;;;6.20;99.90;;;;;;6213225;23;20050;-74
2024/02/20 02:30:52;;;;;;;3.90;1.60;;;6.20;99.90;;;;;;6213935;23;20068;-74
2024/02/20 02:33:17;;;;;;;2.47;1.70;;;6.10;99.90;;;;;;6213502;23;20011;-74
2024/02/20 02:35:43;;;;;;;3.67;1.60;;;6.10;99.90;;;;;;6212272;23;20415;-74
2024/02/20 02:38:09;;;;;;;5.07;1.80;;;6.10;99.90;;;;;;6213762;23;20001;-74
2024/02/20 02:40:35;;;;;;;4.37;1.87;;;6.00;99.90;;;;;;6213108;23;20017;-73
2024/02/20 02:43:00;;;;;;;3.67;1.93;;;6.00;99.90;;;;;;6212690;23;20011;-73
2024/02/20 02:45:31;;;;;;;3.23;1.47;;;6.00;99.90;;;;;;6212808;23;19996;-74
2024/02/20 02:47:56;;;;;;;2.17;1.60;;;6.00;99.90;;;;;;6213429;23;20060;-74
2024/02/20 02:50:22;;;;;;;2.37;1.60;;;6.00;99.90;;;;;;6213305;23;20476;-74
2024/02/20 02:52:47;;;;;;;3.27;1.60;;;6.00;99.90;;;;;;6213609;23;19997;-74
2024/02/20 02:55:13;;;;;;;3.23;1.60;;;6.00;99.90;;;;;;6212686;23;20091;-74
2024/02/20 02:57:39;;;;;;;2.77;1.70;;;6.00;99.90;;;;;;6212963;23;20035;-74
2024/02/20 03:00:09;;;;;;;4.10;1.77;;;6.00;99.90;;;;;;6213255;23;20012;-75
2024/02/20 03:02:35;;;;;;;2.37;1.30;;;6.00;99.90;;;;;;6213455;23;19996;-74
2024/02/20 03:05:00;;;;;;;2.57;1.43;;;6.00;99.90;;;;;;6212593;23;20086;-74
2024/02/20 03:07:25;;;;;;;2.90;1.60;;;6.00;99.90;;;;;;6213662;23;20009;-74
2024/02/20 03:09:51;;;;;;;3.77;1.87;;;6.00;99.90;;;;;;6213387;23;20424;-74
2024/02/20 03:12:17;;;;;;;5.77;1.87;;;6.10;99.90;;;;;;6215079;23;20000;-75
2024/02/20 03:14:43;;;;;;;2.80;1.77;;;6.10;99.90;;;;;;6214879;23;20001;-74
2024/02/20 03:17:08;;;;;;;5.27;2.17;;;6.10;99.90;;;;;;6214939;23;20024;-74
2024/02/20 03:19:34;;;;;;;3.90;1.97;;;6.10;99.90;;;;;;6215566;23;20012;-73
2024/02/20 03:21:59;;;;;;;3.93;2.00;;;6.10;99.90;;;;;;6215612;23;19997;-74
2024/02/20 03:24:25;;;;;;;3.90;2.10;;;6.10;99.90;;;;;;6214501;23;20011;-74
2024/02/20 03:26:51;;;;;;;3.97;2.10;;;6.20;99.90;;;;;;6215278;23;20008;-74
2024/02/20 03:29:16;;;;;;;5.57;2.67;;;6.20;99.90;;;;;;6215149;23;20420;-74
2024/02/20 03:31:42;;;;;;;4.40;2.60;;;6.10;99.90;;;;;;6214836;23;20423;-74
2024/02/20 03:34:08;;;;;;;4.00;2.60;;;6.10;99.90;;;;;;6214461;23;20027;-74
2024/02/20 03:36:33;;;;;;;4.37;2.50;;;6.10;99.90;;;;;;6215415;23;20000;-73
2024/02/20 03:38:59;;;;;;;7.13;2.43;;;6.20;99.90;;;;;;6214714;23;20000;-74
2024/02/20 03:41:24;;;;;;;5.20;2.73;;;6.10;99.90;;;;;;6214737;23;20075;-74
2024/02/20 03:43:50;;;;;;;4.20;2.20;;;6.20;99.90;;;;;;6214854;23;20313;-73
2024/02/20 03:46:15;;;;;;;3.67;2.60;;;6.20;99.90;;;;;;6214602;23;19997;-74
2024/02/20 03:48:41;;;;;;;4.73;2.50;;;6.20;99.90;;;;;;6215587;23;20072;-73
2024/02/20 03:51:06;;;;;;;5.00;2.90;;;6.20;99.90;;;;;;6215406;23;20088;-74
2024/02/20 03:53:32;;;;;;;5.53;2.37;;;6.20;99.90;;;;;;6214471;23;20004;-74
2024/02/20 03:55:57;;;;;;;5.07;2.70;;;6.20;99.90;;;;;;6214315;23;20004;-74
2024/02/20 03:58:23;;;;;;;5.30;2.77;;;6.20;99.90;;;;;;6214746;23;20048;-74
2024/02/20 04:00:48;;;;;;;5.93;2.73;;;6.20;99.90;;;;;;6215175;23;20090;-74
2024/02/20 04:03:14;;;;;;;4.80;2.90;;;6.20;99.90;;;;;;6214817;23;20622;-74
2024/02/20 04:05:40;;;;;;;4.03;2.70;;;6.20;99.90;;;;;;6214319;23;20007;-74
2024/02/20 04:08:06;;;;;;;4.97;2.80;;;6.20;99.90;;;;;;6215161;23;20004;-75
2024/02/20 04:10:31;;;;;;;5.67;3.30;;;6.20;99.90;;;;;;6215222;23;20084;-74
2024/02/20 04:12:57;;;;;;;7.03;2.90;;;6.20;99.90;;;;;;6215004;23;20481;-74
2024/02/20 04:15:22;;;;;;;5.07;3.00;;;6.20;99.90;;;;;;6214289;23;19997;-74
2024/02/20 04:17:48;;;;;;;4.80;3.20;;;6.20;99.90;;;;;;6214932;23;20005;-73
2024/02/20 04:20:13;;;;;;;7.23;2.77;;;6.20;99.90;;;;;;6214453;23;20005;-73
2024/02/20 04:22:39;;;;;;;4.63;3.47;;;6.20;99.90;;;;;;6214539;23;20064;-74
2024/02/20 04:25:06;;;;;;;5.87;3.50;;;6.20;99.90;;;;;;6214071;23;19997;-74
2024/02/20 04:27:32;;;;;;;5.07;2.90;;;6.10;99.90;;;;;;6214555;23;20051;-74
2024/02/20 04:29:57;;;;;;;5.57;3.30;;;6.10;99.90;;;;;;6214974;23;20004;-73
2024/02/20 04:32:23;;;;;;;5.80;3.07;;;6.10;99.90;;;;;;6214872;23;20024;-74
2024/02/20 04:34:49;;;;;;;5.57;3.43;;;6.10;99.90;;;;;;6214020;23;20023;-74
2024/02/20 04:37:15;;;;;;;5.77;3.60;;;6.10;99.90;;;;;;6215113;23;20078;-74
2024/02/20 04:39:43;;;;;;;5.37;3.20;;;6.10;99.90;;;;;;6214513;23;20004;-74
2024/02/20 04:42:09;;;;;;;5.77;3.60;;;6.00;99.90;;;;;;6214672;23;20020;-73
2024/02/20 04:44:37;;;;;;;9.87;3.87;;;6.10;99.90;;;;;;6213652;23;20004;-73
2024/02/20 04:47:06;;;;;;;7.80;3.70;;;6.00;99.90;;;;;;6214809;23;20025;-73
2024/02/20 04:49:32;;;;;;;6.23;4.03;;;6.00;99.90;;;;;;6214964;23;20005;-74
2024/02/20 04:51:58;;;;;;;5.50;3.50;;;6.00;99.90;;;;;;6213824;23;20051;-73
2024/02/20 04:54:23;;;;;;;5.97;4.00;;;6.00;99.90;;;;;;6213853;23;20127;-74
2024/02/20 04:56:49;;;;;;;7.43;3.87;;;6.00;99.90;;;;;;6214982;23;20007;-73
2024/02/20 04:59:14;;;;;;;8.17;4.10;;;6.10;99.90;;;;;;6214075;23;20015;-74
2024/02/20 05:01:40;;;;;;;10.17;4.70;;;6.20;99.90;;;;;;6214132;23;20001;-74
2024/02/20 05:04:05;;;;;;;10.23;4.50;;;6.20;99.90;;;;;;6213808;23;20004;-74
2024/02/20 05:06:31;;;;;;;8.70;4.13;;;6.10;99.90;;;;;;6213920;23;20008;-73
2024/02/20 05:08:56;;;;;;;6.83;4.47;;;6.10;99.90;;;;;;6214505;23;20032;-73
2024/02/20 05:11:22;;;;;;;5.93;3.80;;;6.10;99.90;;;;;;6213287;23;20323;-74
2024/02/20 05:13:48;;;;;;;6.60;4.50;;;6.10;99.90;;;;;;6214094;23;19993;-74
2024/02/20 05:16:13;;;;;;;7.47;4.20;;;6.10;99.90;;;;;;6213546;23;20012;-74
2024/02/20 05:18:39;;;;;;;5.57;4.20;;;6.20;99.90;;;;;;6214262;23;20420;-74
2024/02/20 05:21:06;;;;;;;9.17;4.73;;;6.10;99.90;;;;;;6213653;23;20016;-73
2024/02/20 05:23:32;;;;;;;8.40;4.90;;;6.10;99.90;;;;;;6213317;23;20054;-73
2024/02/20 05:25:58;;;;;;;9.70;4.90;;;6.10;99.90;;;;;;6212538;23;20079;-74
2024/02/20 05:28:23;;;;;;;7.43;5.30;;;6.10;99.90;;;;;;6213684;23;20001;-74
2024/02/20 05:30:49;;;;;;;7.73;5.03;;;6.10;99.90;;;;;;6213518;23;20008;-74
2024/02/20 05:33:15;;;;;;;9.33;4.60;;;6.10;99.90;;;;;;6213854;23;20024;-73
2024/02/20 05:35:42;;;;;;;6.73;4.97;;;6.10;99.90;;;;;;6212947;23;20016;-74
2024/02/20 05:38:08;;;;;;;9.43;4.93;;;6.10;99.90;;;;;;6214128;23;20004;-74
2024/02/20 05:40:34;;;;;;;8.57;4.77;;;6.10;99.90;;;;;;6213381;23;20005;-74
2024/02/20 05:42:59;;;;;;;8.53;5.30;;;6.10;99.90;;;;;;6213663;23;20001;-73
2024/02/20 05:45:25;;;;;;;8.67;5.83;;;6.00;99.90;;;;;;6212876;23;19996;-74
2024/02/20 05:47:50;;;;;;;9.93;5.07;;;6.00;99.90;;;;;;6213055;23;20007;-73
2024/02/20 05:50:16;;;;;;;11.57;6.27;;;6.00;99.90;;;;;;6213204;23;20016;-73
2024/02/20 05:52:41;;;;;;;9.43;5.80;;;6.00;99.90;;;;;;6205928;23;20028;-73
2024/02/20 05:55:07;;;;;;;10.00;6.33;;;6.00;99.90;;;;;;6210455;23;20079;-74
2024/02/20 05:57:33;;;;;;;10.13;5.57;;;6.00;99.90;;;;;;6211182;23;20068;-74
2024/02/20 05:59:59;;;;;;;7.47;5.53;;;6.00;99.90;;;;;;6211383;23;20061;-74
2024/02/20 06:02:25;;;;;;;9.70;6.10;;;6.00;99.90;;;;;;6209055;23;20005;-74
2024/02/20 06:04:51;;;;;;;9.37;6.07;;;5.90;99.90;;;;;;6210693;23;20598;-74
2024/02/20 06:07:17;;;;;;;7.77;5.50;;;5.90;99.90;;;;;;6212091;23;20011;-75
2024/02/20 06:09:43;;;;;;;9.40;6.47;;;5.90;99.90;;;;;;6213164;23;20020;-73
2024/02/20 06:12:09;;;;;;;9.10;5.60;;;5.90;99.90;;;;;;6213025;23;20012;-74
2024/02/20 06:14:42;;;;;;;6.30;5.27;;;5.90;99.90;;;;;;6212508;23;20031;-74
2024/02/20 06:17:08;;;;;;;8.60;5.30;;;6.00;99.90;;;;;;6212877;23;20012;-73
2024/02/20 06:19:33;;;;;;;7.00;5.40;;;6.00;99.90;;;;;;6212262;23;20407;-73
2024/02/20 06:21:59;;;;;;;6.83;4.83;;;5.90;99.90;;;;;;6213595;23;20075;-74
2024/02/20 06:24:24;;;;;;;5.90;4.77;;;6.00;99.90;;;;;;6213175;23;20086;-78
2024/02/20 06:26:50;;;;;;;6.67;4.00;;;6.00;99.90;;;;;;6213550;23;19996;-79
2024/02/20 06:29:15;;;;;;;5.43;3.77;;;6.00;99.90;;;;;;6216123;23;20032;-79
2024/02/20 06:31:41;;;;;;;7.43;3.10;;;5.90;99.90;;;;;;6215514;23;20043;-78
2024/02/20 06:34:09;;;;;;;6.07;3.63;;;5.90;99.90;;;;;;6214574;23;20060;-79
2024/02/20 06:36:34;;;;;;;4.60;2.90;;;5.90;99.90;;;;;;6213846;23;20428;-78
2024/02/20 06:39:00;;;;;;;3.40;2.30;;;5.80;99.90;;;;;;6213139;23;20026;-78
2024/02/20 06:41:26;;;;;;;4.90;2.83;;;5.80;99.90;;;;;;6213225;23;20020;-77
2024/02/20 06:43:51;;;;;;;5.87;2.73;;;5.70;99.90;;;;;;6213183;23;20005;-78
2024/02/20 06:46:17;;;;;;;6.43;3.13;;;5.60;99.90;;;;;;6214773;23;20458;-77
2024/02/20 06:48:46;;;;;;;6.40;3.07;;;5.60;99.90;;;;;;6215712;23;20008;-78
2024/02/20 06:51:12;;;;;;;4.63;2.93;;;5.50;99.90;;;;;;6215282;23;20107;-78
2024/02/20 06:53:38;;;;;;;5.17;3.27;;;5.60;99.90;;;;;;6215191;23;20434;-78
2024/02/20 06:56:04;;;;;;;3.90;2.87;;;5.50;99.90;;;;;;6215823;23;20016;-76
2024/02/20 06:58:29;;;;;;;4.60;2.63;;;5.50;99.90;;;;;;6217036;23;20000;-79
2024/02/20 07:00:55;;;;;;;5.17;2.93;;;5.60;99.90;;;;;;6215399;23;20016;-79
2024/02/20 07:03:20;;;;;;;9.03;3.93;;;5.50;99.90;;;;;;6215309;23;20007;-79
2024/02/20 07:05:46;;;;;;;5.57;3.10;;;5.50;99.90;;;;;;6214818;23;20427;-79
2024/02/20 07:08:12;;;;;;;6.80;3.47;;;5.50;99.90;;;;;;6214800;23;20024;-79
2024/02/20 07:10:39;;;;;;;7.40;3.53;;;5.50;99.90;;;;;;6215513;23;20045;-80
2024/02/20 07:13:04;;;;;;;7.80;3.67;;;5.60;99.90;;;;;;6213536;23;20008;-83
2024/02/20 07:15:30;;;;;;;6.77;3.87;;;5.60;99.90;;;;;;6212394;23;20005;-81
2024/02/20 07:17:56;;;;;;;7.10;3.90;;;5.60;99.90;;;;;;6208317;23;20125;-82
2024/02/20 07:20:22;;;;;;;7.17;4.50;;;5.60;99.90;;;;;;6215160;23;20080;-79
2024/02/20 07:22:50;;;;;;;7.07;4.37;;;5.60;99.90;;;;;;6215342;23;20092;-79
2024/02/20 07:25:18;;;;;;;8.90;4.87;;;5.60;99.90;;;;;;6214468;23;20002;-79
2024/02/20 07:27:45;;;;;;;6.43;4.80;;;5.70;99.90;;;;;;6214543;23;20000;-79
2024/02/20 07:30:11;;;;;;;7.80;4.87;;;5.70;99.90;;;;;;6215195;23;20450;-79
2024/02/20 07:32:39;;;;;;;7.10;4.83;;;5.70;99.90;;;;;;6214463;23;20009;-80
2024/02/20 07:35:04;;;;;;;9.20;4.53;;;5.70;99.90;;;;;;6214630;23;20335;-80
2024/02/20 07:37:30;;;;;;;6.43;4.53;;;5.80;99.90;;;;;;6214964;23;20004;-80
2024/02/20 07:39:56;;;;;;;6.27;3.87;;;5.80;99.90;;;;;;6215280;23;20012;-79
2024/02/20 07:42:21;;;;;;;7.53;4.43;;;5.80;99.90;;;;;;6214563;23;20350;-78
2024/02/20 07:44:47;;;;;;;5.30;4.17;;;5.80;99.90;;;;;;6214779;23;20011;-79
2024/02/20 07:47:14;;;;;;;9.13;4.43;;;5.80;99.90;;;;;;6214997;23;20009;-80
2024/02/20 07:49:39;;;;;;;9.10;5.43;;;5.80;99.90;;;;;;6215529;23;20330;-79
2024/02/20 07:52:05;;;;;;;7.70;4.80;;;5.90;99.90;;;;;;6215257;23;20064;-79
2024/02/20 07:54:31;;;;;;;7.97;4.80;;;5.90;99.90;;;;;;6214925;23;20001;-79
2024/02/20 07:56:57;;;;;;;7.73;4.13;;;5.90;99.90;;;;;;6214183;23;20000;-80
2024/02/20 07:59:23;;;;;;;15.80;5.07;;;5.90;99.90;;;;;;6215090;23;20376;-82
2024/02/20 08:01:51;;;;;;;11.53;4.40;;;5.90;99.90;;;;;;6214543;23;20346;-80
2024/02/20 08:04:17;;;;;;;8.90;4.60;;;5.90;99.90;;;;;;6214515;23;20088;-80
2024/02/20 08:06:44;;;;;;;10.93;5.03;;;5.90;99.90;;;;;;6214514;23;20012;-79
2024/02/20 08:09:10;;;;;;;11.07;4.83;;;5.90;99.90;;;;;;6214949;23;20076;-79
2024/02/20 08:11:37;;;;;;;13.67;6.00;;;5.90;99.90;;;;;;6215043;23;20330;-79
2024/02/20 08:14:03;;;;;;;14.30;5.33;;;5.90;99.90;;;;;;6214169;23;20492;-80
2024/02/20 08:16:30;;;;;;;10.33;5.27;;;6.00;99.90;;;;;;6213920;23;20008;-82
2024/02/20 08:18:56;;;;;;;12.50;4.47;;;6.10;99.90;;;;;;6214620;23;20067;-79
2024/02/20 08:21:21;;;;;;;12.37;4.83;;;6.10;99.90;;;;;;6214579;23;19996;-79
2024/02/20 08:23:47;;;;;;;10.93;5.03;;;6.30;99.90;;;;;;6214365;23;20000;-80
2024/02/20 08:26:12;;;;;;;10.63;4.50;;;6.40;99.90;;;;;;6214208;23;20009;-82
2024/02/20 08:28:40;;;;;;;10.47;3.50;;;6.50;99.90;;;;;;6214507;23;20451;-79
2024/02/20 08:31:05;;;;;;;8.20;3.00;;;6.60;99.90;;;;;;6215025;23;20005;-81
2024/02/20 08:33:31;;;;;;;12.60;3.70;;;6.70;99.90;;;;;;6215129;23;20486;-79
2024/02/20 08:35:56;;;;;;;10.70;4.57;;;6.80;99.90;;;;;;6214401;23;20381;-82
2024/02/20 08:38:22;;;;;;;7.67;3.47;;;6.80;99.90;;;;;;6214690;23;20075;-78
2024/02/20 08:40:48;;;;;;;13.83;4.23;;;6.80;99.90;;;;;;6214896;23;20090;-79
2024/02/20 08:43:14;;;;;;;9.10;3.33;;;6.80;99.90;;;;;;6214189;23;20339;-79
2024/02/20 08:45:39;;;;;;;14.80;4.80;;;6.70;99.90;;;;;;6214480;23;20012;-79
2024/02/20 08:48:05;;;;;;;13.03;3.60;;;6.80;99.90;;;;;;6214501;23;20011;-82
2024/02/20 08:50:31;;;;;;;10.63;4.13;;;6.80;99.90;;;;;;6214633;23;20009;-79
2024/02/20 08:52:56;;;;;;;12.17;3.77;;;6.80;99.90;;;;;;6213624;23;20123;-79
2024/02/20 08:55:22;;;;;;;11.80;3.90;;;6.80;99.90;;;;;;6208209;23;20080;-85
2024/02/20 08:57:48;;;;;;;14.30;3.73;;;6.80;99.90;;;;;;6213799;23;20121;-79
2024/02/20 09:00:14;;;;;;;16.30;4.67;;;6.90;99.90;;;;;;6214580;23;20004;-79
2024/02/20 09:02:42;;;;;;;14.17;3.73;;;6.80;99.90;;;;;;6214493;23;20076;-82
2024/02/20 09:05:09;;;;;;;15.20;4.17;;;6.90;99.90;;;;;;6214561;23;20327;-81
2024/02/20 09:07:36;;;;;;;14.33;4.40;;;6.90;99.90;;;;;;6212920;23;20335;-79
2024/02/20 09:10:05;;;;;;;10.57;3.90;;;7.00;99.90;;;;;;6214884;23;20400;-82
2024/02/20 09:12:32;;;;;;;12.03;4.23;;;7.10;99.90;;;;;;6213213;23;20019;-79
2024/02/20 09:14:58;;;;;;;12.70;3.63;;;7.20;99.90;;;;;;6214617;23;20000;-80
2024/02/20 09:17:23;;;;;;;10.73;4.37;;;7.30;99.90;;;;;;6214887;23;20005;-82
2024/02/20 09:19:49;;;;;;;10.60;4.20;;;7.30;99.90;;;;;;6215422;23;20005;-79
2024/02/20 09:22:15;;;;;;;14.63;4.97;;;7.40;99.90;;;;;;6214501;23;20083;-79
2024/02/20 09:24:41;;;;;;;11.83;3.80;;;7.40;99.90;;;;;;6214188;23;19997;-79
2024/02/20 09:27:07;;;;;;;14.07;4.40;;;7.30;99.90;;;;;;6212205;23;20003;-78
2024/02/20 09:29:33;;;;;;;18.23;5.00;;;7.30;99.90;;;;;;6213887;23;20011;-75
2024/02/20 09:31:58;;;;;;;12.63;3.53;;;7.20;99.90;;;;;;6213472;23;20005;-74
2024/02/20 09:34:25;;;;;;;13.33;4.27;;;7.20;99.90;;;;;;6213571;23;20427;-74
2024/02/20 09:36:50;;;;;;;13.90;5.17;;;7.20;99.90;;;;;;6213466;23;20008;-74
2024/02/20 09:39:16;;;;;;;11.70;3.80;;;7.20;99.90;;;;;;6213610;23;20308;-74
2024/02/20 09:41:43;;;;;;;18.07;4.80;;;7.10;99.90;;;;;;6213848;23;20001;-78
2024/02/20 09:44:11;;;;;;;8.27;3.03;;;7.10;99.90;;;;;;6211318;23;20327;-78
2024/02/20 09:46:43;;;;;;;9.60;3.37;;;7.00;99.90;;;;;;6213206;23;20015;-77
2024/02/20 09:49:10;;;;;;;11.47;3.50;;;6.80;99.90;;;;;;6209165;23;20384;-77
2024/02/20 09:51:37;;;;;;;14.37;3.63;;;6.60;99.90;;;;;;6213682;23;20031;-77
2024/02/20 09:54:04;;;;;;;13.57;3.70;;;6.40;99.90;;;;;;6213299;23;20032;-77
2024/02/20 09:56:35;;;;;;;14.73;4.30;;;6.30;99.90;;;;;;6213433;23;20011;-77
2024/02/20 09:59:01;;;;;;;14.30;4.20;;;6.30;99.90;;;;;;6213377;23;20004;-77
2024/02/20 10:01:27;;;;;;;17.33;4.33;;;6.20;99.90;;;;;;6213599;23;20012;-77
2024/02/20 10:03:57;;;;;;;11.97;4.20;;;6.30;99.90;;;;;;6211735;23;20550;-77
2024/02/20 10:06:25;;;;;;;14.37;4.27;;;6.40;99.90;;;;;;6212433;23;20435;-77
2024/02/20 10:08:52;;;;;;;21.30;4.87;;;6.50;99.90;;;;;;6213159;23;20009;-77
2024/02/20 10:11:17;;;;;;;15.17;4.27;;;6.60;99.90;;;;;;6213544;23;20001;-78
2024/02/20 10:13:44;;;;;;;11.17;4.00;;;6.80;99.90;;;;;;6213390;23;20066;-78
2024/02/20 10:16:13;;;;;;;9.47;3.57;;;7.00;99.90;;;;;;6212934;23;20012;-78
2024/02/20 10:18:39;;;;;;;12.27;4.27;;;7.20;99.90;;;;;;6212750;23;20000;-78
2024/02/20 10:21:09;;;;;;;16.47;4.43;;;7.40;99.90;;;;;;6213870;23;20024;-77
2024/02/20 10:23:35;;;;;;;13.20;3.47;;;7.50;99.90;;;;;;6213548;23;20005;-77
2024/02/20 10:26:01;;;;;;;14.37;4.43;;;7.60;99.90;;;;;;6212694;23;20370;-78
2024/02/20 10:28:28;;;;;;;15.73;3.33;;;7.60;99.90;;;;;;6213626;23;20004;-78
2024/02/20 10:30:55;;;;;;;13.57;4.10;;;7.70;99.90;;;;;;6213119;23;20005;-77
2024/02/20 10:33:22;;;;;;;16.10;4.93;;;7.70;99.90;;;;;;6213444;23;20060;-77
2024/02/20 10:35:47;;;;;;;14.77;3.60;;;7.60;99.90;;;;;;6212370;23;20008;-78
2024/02/20 10:38:18;;;;;;;11.93;3.67;;;7.60;99.90;;;;;;6212955;23;19997;-78
2024/02/20 10:40:44;;;;;;;13.93;4.00;;;7.80;99.90;;;;;;6211813;23;20335;-78
2024/02/20 10:43:12;;;;;;;11.83;4.67;;;8.00;99.90;;;;;;6210967;23;20075;-78
2024/02/20 10:45:39;;;;;;;14.90;4.17;;;8.20;99.90;;;;;;6212335;23;20025;-77
2024/02/20 10:48:10;;;;;;;13.03;3.97;;;8.20;99.90;;;;;;6213025;23;20075;-78
2024/02/20 10:50:35;;;;;;;12.83;3.60;;;8.20;99.90;;;;;;6213286;23;20012;-78
2024/02/20 10:53:02;;;;;;;14.90;3.73;;;8.10;99.90;;;;;;6212946;23;20323;-78
2024/02/20 10:55:29;;;;;;;12.73;3.37;;;7.90;99.90;;;;;;6212763;23;19997;-78
2024/02/20 10:57:59;;;;;;;16.57;4.77;;;7.80;99.90;;;;;;6213210;23;20007;-77
2024/02/20 11:00:26;;;;;;;10.30;3.43;;;7.70;99.90;;;;;;6212809;23;20454;-78
2024/02/20 11:02:53;;;;;;;16.83;3.60;;;7.60;99.90;;;;;;6212306;23;20411;-77
2024/02/20 11:05:19;;;;;;;13.17;3.27;;;7.70;99.90;;;;;;6212209;23;20005;-79
2024/02/20 11:07:45;;;;;;;13.80;3.53;;;7.60;99.90;;;;;;6212756;23;20007;-78
2024/02/20 11:10:15;;;;;;;14.77;5.00;;;7.70;99.90;;;;;;6213093;23;20004;-78
2024/02/20 11:12:41;;;;;;;15.70;3.20;;;7.70;99.90;;;;;;6213237;23;19997;-78
2024/02/20 11:15:07;;;;;;;15.80;4.83;;;7.70;99.90;;;;;;6212210;23;20011;-78
2024/02/20 11:17:36;;;;;;;14.40;3.37;;;7.70;99.90;;;;;;6212383;23;20419;-78
2024/02/20 11:20:23;;;;;;;12.43;3.10;;;7.70;99.90;;;;;;6212425;23;20005;-78
2024/02/20 11:22:49;;;;;;;11.77;3.23;;;7.80;99.90;;;;;;6212973;23;20355;-78
2024/02/20 11:25:25;;;;;;;12.57;2.93;;;7.80;99.90;;;;;;6212345;23;20007;-77
2024/02/20 11:27:51;;;;;;;14.37;3.93;;;7.90;99.90;;;;;;6212984;23;20051;-78
2024/02/20 11:30:17;;;;;;;13.53;3.77;;;7.90;99.90;;;;;;6212334;23;20463;-77
2024/02/20 11:32:43;;;;;;;10.83;3.23;;;8.00;99.90;;;;;;6214804;23;20007;-78
2024/02/20 11:35:29;;;;;;;15.97;3.40;;;8.10;99.90;;;;;;6215766;23;20559;-77
2024/02/20 11:37:55;;;;;;;9.57;2.70;;;8.30;99.90;;;;;;6214418;23;20007;-77
2024/02/20 11:40:25;;;;;;;10.73;3.30;;;8.50;99.90;;;;;;6214954;23;20339;-77
2024/02/20 11:42:53;;;;;;;8.07;2.20;;;8.70;99.90;;;;;;6214745;23;20015;-77
2024/02/20 11:45:24;;;;;;;8.73;2.40;;;8.80;99.90;;;;;;6214452;23;20335;-77
2024/02/20 11:48:05;;;;;;;12.83;3.37;;;8.70;99.90;;;;;;6214773;23;20068;-77
2024/02/20 11:50:39;;;;;;;10.17;2.80;;;8.60;99.90;;;;;;6214810;23;20012;-77
2024/02/20 11:53:16;;;;;;;7.33;2.63;;;8.40;99.90;;;;;;6215172;23;20024;-77
2024/02/20 11:55:53;;;;;;;9.23;2.87;;;8.30;99.90;;;;;;6213979;23;20011;-77
2024/02/20 11:58:21;;;;;;;14.93;3.33;;;8.10;99.90;;;;;;6213485;23;20008;-78
2024/02/20 12:00:49;;;;;;;13.30;3.00;;;8.00;99.90;;;;;;6212195;23;20443;-77
2024/02/20 12:03:30;;;;;;;14.00;3.30;;;7.80;99.90;;;;;;6214474;23;20005;-77
2024/02/20 12:06:01;;;;;;;9.67;2.87;;;7.50;99.90;;;;;;6213894;23;20246;-77
2024/02/20 12:08:33;;;;;;;9.07;2.77;;;7.20;99.90;;;;;;6214706;23;20000;-77
2024/02/20 12:11:06;;;;;;;9.53;2.50;;;7.10;99.90;;;;;;6214617;23;20009;-77
2024/02/20 12:13:31;;;;;;;7.07;2.50;;;7.00;99.90;;;;;;6208203;23;20051;-77
2024/02/20 12:15:58;;;;;;;9.97;2.63;;;7.00;99.90;;;;;;6213327;23;20012;-77
2024/02/20 12:18:25;;;;;;;12.47;2.63;;;7.10;99.90;;;;;;6208434;23;20086;-77
2024/02/20 12:20:52;;;;;;;7.33;2.23;;;7.10;99.90;;;;;;6213706;23;20009;-77
2024/02/20 12:23:21;;;;;;;10.07;2.43;;;7.10;99.90;;;;;;6210730;23;20000;-77
2024/02/20 12:25:47;;;;;;;7.40;2.37;;;7.20;99.90;;;;;;6209226;23;20039;-77
2024/02/20 12:28:13;;;;;;;8.10;2.20;;;7.10;99.90;;;;;;6214286;23;20423;-77
2024/02/20 12:30:41;;;;;;;9.23;2.33;;;7.10;99.90;;;;;;6213854;23;20000;-77
2024/02/20 12:33:07;;;;;;;7.70;2.40;;;7.20;99.90;;;;;;6214300;23;20080;-77
2024/02/20 12:35:32;;;;;;;8.17;2.50;;;7.00;99.90;;;;;;6213921;23;20005;-77
2024/02/20 12:37:58;;;;;;;8.57;2.43;;;6.90;99.90;;;;;;6214292;23;20068;-77
2024/02/20 12:40:25;;;;;;;6.00;2.03;;;6.80;99.90;;;;;;6214087;23;20034;-77
2024/02/20 12:42:51;;;;;;;10.43;2.40;;;6.80;99.90;;;;;;6213349;23;20024;-77
2024/02/20 12:45:16;;;;;;;8.37;2.10;;;6.80;99.90;;;;;;6213727;23;20001;-77
2024/02/20 12:47:42;;;;;;;6.87;2.43;;;6.90;99.90;;;;;;6214459;23;20440;-77
2024/02/20 12:50:08;;;;;;;5.37;2.00;;;7.00;99.90;;;;;;6212961;23;20000;-77